Aviation Digital Data Service (ADDS)

Output produced by METARs form (1936 UTC 23 January 2019)
found at http://www.aviationweather.gov/metar/data/
 
METAR text: KLBB 231853Z 23012G19KT 10SM FEW250 07/M11 A3013 RMK AO2 SLP206 T00671111
Conditions at: KLBB (LUBBOCK , TX, US) observed 1853 UTC 23 January 2019
Temperature: 6.7°C (44°F)
Dewpoint: -11.1°C (12°F) [RH = 27%]
Pressure (altimeter): 30.13 inches Hg (1020.4 mb)
[Sea-level pressure: 1020.6 mb]
Winds: from the SW (230 degrees) at 14 MPH (12 knots; 6.2 m/s)
gusting to 22 MPH (19 knots; 9.8 m/s)
Visibility: 10 or more miles (16+ km)
Ceiling: at least 12,000 feet AGL
Clouds: few clouds at 25000 feet AGL
Weather: no significant weather observed at this time

METAR text: KLBB 231753Z 24010KT 10SM FEW250 05/M12 A3018 RMK AO2 SLP227 T00501122 10056 21072 58004
Conditions at: KLBB (LUBBOCK , TX, US) observed 1753 UTC 23 January 2019
Temperature: 5.0°C (41°F)
Dewpoint: -12.2°C (10°F) [RH = 28%]
Pressure (altimeter): 30.18 inches Hg (1022.1 mb)
[Sea-level pressure: 1022.7 mb]
Winds: from the WSW (240 degrees) at 12 MPH (10 knots; 5.1 m/s)
Visibility: 10 or more miles (16+ km)
Ceiling: at least 12,000 feet AGL
Clouds: few clouds at 25000 feet AGL
Weather: no significant weather observed at this time

METAR text: KLBB 231653Z 26010KT 10SM CLR 04/M11 A3020 RMK AO2 SLP233 T00391106
Conditions at: KLBB (LUBBOCK , TX, US) observed 1653 UTC 23 January 2019
Temperature: 3.9°C (39°F)
Dewpoint: -10.6°C (13°F) [RH = 34%]
Pressure (altimeter): 30.20 inches Hg (1022.8 mb)
[Sea-level pressure: 1023.3 mb]
Winds: from the W (260 degrees) at 12 MPH (10 knots; 5.1 m/s)
Visibility: 10 or more miles (16+ km)
Ceiling: at least 12,000 feet AGL
Clouds: sky clear below 12,000 feet AGL
Weather: no significant weather observed at this time

METAR text: KLBB 231553Z 26006KT 10SM CLR 01/M09 A3020 RMK AO2 SLP239 T00061094
Conditions at: KLBB (LUBBOCK , TX, US) observed 1553 UTC 23 January 2019
Temperature: 0.6°C (33°F)
Dewpoint: -9.4°C (15°F) [RH = 47%]
Pressure (altimeter): 30.20 inches Hg (1022.8 mb)
[Sea-level pressure: 1023.9 mb]
Winds: from the W (260 degrees) at 7 MPH (6 knots; 3.1 m/s)
Visibility: 10 or more miles (16+ km)
Ceiling: at least 12,000 feet AGL
Clouds: sky clear below 12,000 feet AGL
Weather: no significant weather observed at this time

METAR text: KLBB 231453Z 29009KT 10SM FEW032 M04/M10 A3019 RMK AO2 SLP240 T10391100 51010
Conditions at: KLBB (LUBBOCK , TX, US) observed 1453 UTC 23 January 2019
Temperature: -3.9°C (25°F)
Dewpoint: -10.0°C (14°F) [RH = 62%]
Pressure (altimeter): 30.19 inches Hg (1022.4 mb)
[Sea-level pressure: 1024.0 mb]
Winds: from the WNW (290 degrees) at 10 MPH (9 knots; 4.6 m/s)
Visibility: 10 or more miles (16+ km)
Ceiling: at least 12,000 feet AGL
Clouds: few clouds at 3200 feet AGL
Weather: no significant weather observed at this time

METAR text: KLBB 231353Z 30009KT 10SM CLR M06/M11 A3019 RMK AO2 SLP239 T10611106
Conditions at: KLBB (LUBBOCK , TX, US) observed 1353 UTC 23 January 2019
Temperature: -6.1°C (21°F)
Dewpoint: -10.6°C (13°F) [RH = 70%]
Pressure (altimeter): 30.19 inches Hg (1022.4 mb)
[Sea-level pressure: 1023.9 mb]
Winds: from the WNW (300 degrees) at 10 MPH (9 knots; 4.6 m/s)
Visibility: 10 or more miles (16+ km)
Ceiling: at least 12,000 feet AGL
Clouds: sky clear below 12,000 feet AGL
Weather: no significant weather observed at this time

METAR text: KLBB 231253Z 29007KT 10SM CLR M07/M11 A3017 RMK AO2 SLP233 T10671106
Conditions at: KLBB (LUBBOCK , TX, US) observed 1253 UTC 23 January 2019
Temperature: -6.7°C (20°F)
Dewpoint: -10.6°C (13°F) [RH = 74%]
Pressure (altimeter): 30.17 inches Hg (1021.8 mb)
[Sea-level pressure: 1023.3 mb]
Winds: from the WNW (290 degrees) at 8 MPH (7 knots; 3.6 m/s)
Visibility: 10 or more miles (16+ km)
Ceiling: at least 12,000 feet AGL
Clouds: sky clear below 12,000 feet AGL
Weather: no significant weather observed at this time

METAR text: KLBB 231153Z 31007KT 10SM CLR M06/M10 A3016 RMK AO2 SLP227 T10561100 11028 21061 56006
Conditions at: KLBB (LUBBOCK , TX, US) observed 1153 UTC 23 January 2019
Temperature: -5.6°C (22°F)
Dewpoint: -10.0°C (14°F) [RH = 71%]
Pressure (altimeter): 30.16 inches Hg (1021.4 mb)
[Sea-level pressure: 1022.7 mb]
Winds: from the NW (310 degrees) at 8 MPH (7 knots; 3.6 m/s)
Visibility: 10 or more miles (16+ km)
Ceiling: at least 12,000 feet AGL
Clouds: sky clear below 12,000 feet AGL
Weather: no significant weather observed at this time

METAR text: KLBB 231053Z 30010KT 10SM CLR M06/M10 A3016 RMK AO2 SLP227 T10561100
Conditions at: KLBB (LUBBOCK , TX, US) observed 1053 UTC 23 January 2019
Temperature: -5.6°C (22°F)
Dewpoint: -10.0°C (14°F) [RH = 71%]
Pressure (altimeter): 30.16 inches Hg (1021.4 mb)
[Sea-level pressure: 1022.7 mb]
Winds: from the WNW (300 degrees) at 12 MPH (10 knots; 5.1 m/s)
Visibility: 10 or more miles (16+ km)
Ceiling: at least 12,000 feet AGL
Clouds: sky clear below 12,000 feet AGL
Weather: no significant weather observed at this time

METAR text: KLBB 230953Z 32009KT 10SM CLR M05/M09 A3017 RMK AO2 SLP227 T10501094
Conditions at: KLBB (LUBBOCK , TX, US) observed 0953 UTC 23 January 2019
Temperature: -5.0°C (23°F)
Dewpoint: -9.4°C (15°F) [RH = 71%]
Pressure (altimeter): 30.17 inches Hg (1021.8 mb)
[Sea-level pressure: 1022.7 mb]
Winds: from the NW (320 degrees) at 10 MPH (9 knots; 4.6 m/s)
Visibility: 10 or more miles (16+ km)
Ceiling: at least 12,000 feet AGL
Clouds: sky clear below 12,000 feet AGL
Weather: no significant weather observed at this time

METAR text: KLBB 230853Z 32013KT 10SM CLR M04/M09 A3018 RMK AO2 SLP229 T10441094 58003
Conditions at: KLBB (LUBBOCK , TX, US) observed 0853 UTC 23 January 2019
Temperature: -4.4°C (24°F)
Dewpoint: -9.4°C (15°F) [RH = 68%]
Pressure (altimeter): 30.18 inches Hg (1022.1 mb)
[Sea-level pressure: 1022.9 mb]
Winds: from the NW (320 degrees) at 15 MPH (13 knots; 6.7 m/s)
Visibility: 10 or more miles (16+ km)
Ceiling: at least 12,000 feet AGL
Clouds: sky clear below 12,000 feet AGL
Weather: no significant weather observed at this time

METAR text: KLBB 230753Z 31011KT 10SM CLR M04/M09 A3019 RMK AO2 SLP233 T10391089
Conditions at: KLBB (LUBBOCK , TX, US) observed 0753 UTC 23 January 2019
Temperature: -3.9°C (25°F)
Dewpoint: -8.9°C (16°F) [RH = 68%]
Pressure (altimeter): 30.19 inches Hg (1022.4 mb)
[Sea-level pressure: 1023.3 mb]
Winds: from the NW (310 degrees) at 13 MPH (11 knots; 5.7 m/s)
Visibility: 10 or more miles (16+ km)
Ceiling: at least 12,000 feet AGL
Clouds: sky clear below 12,000 feet AGL
Weather: no significant weather observed at this time

METAR text: KLBB 230653Z 32009KT 10SM CLR M04/M09 A3019 RMK AO2 SLP234 T10391089
Conditions at: KLBB (LUBBOCK , TX, US) observed 0653 UTC 23 January 2019
Temperature: -3.9°C (25°F)
Dewpoint: -8.9°C (16°F) [RH = 68%]
Pressure (altimeter): 30.19 inches Hg (1022.4 mb)
[Sea-level pressure: 1023.4 mb]
Winds: from the NW (320 degrees) at 10 MPH (9 knots; 4.6 m/s)
Visibility: 10 or more miles (16+ km)
Ceiling: at least 12,000 feet AGL
Clouds: sky clear below 12,000 feet AGL
Weather: no significant weather observed at this time

METAR text: KLBB 230553Z 34009KT 10SM CLR M03/M09 A3019 RMK AO2 SLP232 T10281089 10022 21033 401061033 53013
Conditions at: KLBB (LUBBOCK , TX, US) observed 0553 UTC 23 January 2019
Temperature: -2.8°C (27°F)
Dewpoint: -8.9°C (16°F) [RH = 63%]
Pressure (altimeter): 30.19 inches Hg (1022.4 mb)
[Sea-level pressure: 1023.2 mb]
Winds: from the NNW (340 degrees) at 10 MPH (9 knots; 4.6 m/s)
Visibility: 10 or more miles (16+ km)
Ceiling: at least 12,000 feet AGL
Clouds: sky clear below 12,000 feet AGL
Weather: no significant weather observed at this time

METAR text: KLBB 230453Z 35014KT 10SM FEW250 M03/M08 A3016 RMK AO2 SLP221 T10281078
Conditions at: KLBB (LUBBOCK , TX, US) observed 0453 UTC 23 January 2019
Temperature: -2.8°C (27°F)
Dewpoint: -7.8°C (18°F) [RH = 68%]
Pressure (altimeter): 30.16 inches Hg (1021.4 mb)
[Sea-level pressure: 1022.1 mb]
Winds: from the N (350 degrees) at 16 MPH (14 knots; 7.2 m/s)
Visibility: 10 or more miles (16+ km)
Ceiling: at least 12,000 feet AGL
Clouds: few clouds at 25000 feet AGL
Weather: no significant weather observed at this time

METAR text: KLBB 230353Z 32010KT 10SM FEW250 M03/M08 A3016 RMK AO2 SLP214 T10281078
Conditions at: KLBB (LUBBOCK , TX, US) observed 0353 UTC 23 January 2019
Temperature: -2.8°C (27°F)
Dewpoint: -7.8°C (18°F) [RH = 68%]
Pressure (altimeter): 30.16 inches Hg (1021.4 mb)
[Sea-level pressure: 1021.4 mb]
Winds: from the NW (320 degrees) at 12 MPH (10 knots; 5.1 m/s)
Visibility: 10 or more miles (16+ km)
Ceiling: at least 12,000 feet AGL
Clouds: few clouds at 25000 feet AGL
Weather: no significant weather observed at this time

METAR text: KLBB 230253Z 35011KT 10SM FEW250 M01/M08 A3015 RMK AO2 SLP216 T10111078 51028
Conditions at: KLBB (LUBBOCK , TX, US) observed 0253 UTC 23 January 2019
Temperature: -1.1°C (30°F)
Dewpoint: -7.8°C (18°F) [RH = 60%]
Pressure (altimeter): 30.15 inches Hg (1021.1 mb)
[Sea-level pressure: 1021.6 mb]
Winds: from the N (350 degrees) at 13 MPH (11 knots; 5.7 m/s)
Visibility: 10 or more miles (16+ km)
Ceiling: at least 12,000 feet AGL
Clouds: few clouds at 25000 feet AGL
Weather: no significant weather observed at this time

METAR text: KLBB 230153Z 35017G28KT 10SM FEW250 00/M08 A3012 RMK AO2 PK WND 36029/0125 SLP208 T00001078
Conditions at: KLBB (LUBBOCK , TX, US) observed 0153 UTC 23 January 2019
Temperature: 0.0°C (32°F)
Dewpoint: -7.8°C (18°F) [RH = 56%]
Pressure (altimeter): 30.12 inches Hg (1020.1 mb)
[Sea-level pressure: 1020.8 mb]
Winds: from the N (350 degrees) at 20 MPH (17 knots; 8.7 m/s)
gusting to 32 MPH (28 knots; 14.4 m/s)
Visibility: 10 or more miles (16+ km)
Ceiling: at least 12,000 feet AGL
Clouds: few clouds at 25000 feet AGL
Weather: no significant weather observed at this time

METAR text: KLBB 230053Z 36019G26KT 10SM FEW050 FEW180 FEW250 01/M09 A3009 RMK AO2 PK WND 36032/0023 SLP193 T00111089
Conditions at: KLBB (LUBBOCK , TX, US) observed 0053 UTC 23 January 2019
Temperature: 1.1°C (34°F)
Dewpoint: -8.9°C (16°F) [RH = 47%]
Pressure (altimeter): 30.09 inches Hg (1019.0 mb)
[Sea-level pressure: 1019.3 mb]
Winds: from the N (360 degrees) at 22 MPH (19 knots; 9.8 m/s)
gusting to 30 MPH (26 knots; 13.4 m/s)
Visibility: 10 or more miles (16+ km)
Ceiling: at least 12,000 feet AGL
Clouds: few clouds at 5000 feet AGL
few clouds at 18000 feet AGL
few clouds at 25000 feet AGL
Weather: no significant weather observed at this time

METAR text: KLBB 222353Z 36024G29KT 10SM FEW050 FEW150 02/M09 A3006 RMK AO2 PK WND 36035/2255 SLP176 T00221094 10050 20022 51031
Conditions at: KLBB (LUBBOCK , TX, US) observed 2353 UTC 22 January 2019
Temperature: 2.2°C (36°F)
Dewpoint: -9.4°C (15°F) [RH = 42%]
Pressure (altimeter): 30.06 inches Hg (1018.0 mb)
[Sea-level pressure: 1017.6 mb]
Winds: from the N (360 degrees) at 28 MPH (24 knots; 12.3 m/s)
gusting to 33 MPH (29 knots; 14.9 m/s)
Visibility: 10 or more miles (16+ km)
Ceiling: at least 12,000 feet AGL
Clouds: few clouds at 5000 feet AGL
few clouds at 15000 feet AGL
Weather: no significant weather observed at this time

METAR text: KLBB 222253Z 35026G32KT 10SM FEW045 FEW120 03/M09 A3003 RMK AO2 PK WND 34038/2159 SLP164 T00331094
Conditions at: KLBB (LUBBOCK , TX, US) observed 2253 UTC 22 January 2019
Temperature: 3.3°C (38°F)
Dewpoint: -9.4°C (15°F) [RH = 39%]
Pressure (altimeter): 30.03 inches Hg (1017.0 mb)
[Sea-level pressure: 1016.4 mb]
Winds: from the N (350 degrees) at 30 MPH (26 knots; 13.4 m/s)
gusting to 37 MPH (32 knots; 16.5 m/s)
Visibility: 10 or more miles (16+ km)
Ceiling: at least 12,000 feet AGL
Clouds: few clouds at 4500 feet AGL
few clouds at 12000 feet AGL
Weather: no significant weather observed at this time

METAR text: KLBB 222153Z 35028G35KT 10SM FEW045 FEW120 04/M09 A2999 RMK AO2 PK WND 35035/2151 SLP150 T00391089
Conditions at: KLBB (LUBBOCK , TX, US) observed 2153 UTC 22 January 2019
Temperature: 3.9°C (39°F)
Dewpoint: -8.9°C (16°F) [RH = 39%]
Pressure (altimeter): 29.99 inches Hg (1015.7 mb)
[Sea-level pressure: 1015.0 mb]
Winds: from the N (350 degrees) at 32 MPH (28 knots; 14.4 m/s)
gusting to 40 MPH (35 knots; 18.0 m/s)
Visibility: 10 or more miles (16+ km)
Ceiling: at least 12,000 feet AGL
Clouds: few clouds at 4500 feet AGL
few clouds at 12000 feet AGL
Weather: no significant weather observed at this time

METAR text: KLBB 222053Z 35024G33KT 10SM FEW032 FEW120 04/M08 A2995 RMK AO2 PK WND 01033/2045 SLP133 T00441078 53019
Conditions at: KLBB (LUBBOCK , TX, US) observed 2053 UTC 22 January 2019
Temperature: 4.4°C (40°F)
Dewpoint: -7.8°C (18°F) [RH = 41%]
Pressure (altimeter): 29.95 inches Hg (1014.3 mb)
[Sea-level pressure: 1013.3 mb]
Winds: from the N (350 degrees) at 28 MPH (24 knots; 12.3 m/s)
gusting to 38 MPH (33 knots; 17.0 m/s)
Visibility: 10 or more miles (16+ km)
Ceiling: at least 12,000 feet AGL
Clouds: few clouds at 3200 feet AGL
few clouds at 12000 feet AGL
Weather: no significant weather observed at this time

METAR text: KLBB 221957Z 36023G31KT 10SM SCT028 SCT120 04/M06 A2993 RMK AO2 PK WND 35029/1956 T00391056
Conditions at: KLBB (LUBBOCK , TX, US) observed 1957 UTC 22 January 2019
Temperature: 3.9°C (39°F)
Dewpoint: -5.6°C (22°F) [RH = 50%]
Pressure (altimeter): 29.93 inches Hg (1013.6 mb)
Winds: from the N (360 degrees) at 26 MPH (23 knots; 11.8 m/s)
gusting to 36 MPH (31 knots; 15.9 m/s)
Visibility: 10 or more miles (16+ km)
Ceiling: at least 12,000 feet AGL
Clouds: scattered clouds at 2800 feet AGL
scattered clouds at 12000 feet AGL
Weather: no significant weather observed at this time

METAR text: KLBB 221953Z 34024G31KT 10SM BKN024 BKN120 03/M06 A2993 RMK AO2 PK WND 35034/1856 SLP126 T00331056
Conditions at: KLBB (LUBBOCK , TX, US) observed 1953 UTC 22 January 2019
Temperature: 3.3°C (38°F)
Dewpoint: -5.6°C (22°F) [RH = 52%]
Pressure (altimeter): 29.93 inches Hg (1013.6 mb)
[Sea-level pressure: 1012.6 mb]
Winds: from the NNW (340 degrees) at 28 MPH (24 knots; 12.3 m/s)
gusting to 36 MPH (31 knots; 15.9 m/s)
Visibility: 10 or more miles (16+ km)
Ceiling: 2400 feet AGL
Clouds: broken clouds at 2400 feet AGL
broken clouds at 12000 feet AGL
Weather: no significant weather observed at this time

METAR text: KLBB 221853Z 35023G35KT 10SM BKN024 BKN120 03/M04 A2991 RMK AO2 PK WND 36035/1851 SLP120 T00331039
Conditions at: KLBB (LUBBOCK , TX, US) observed 1853 UTC 22 January 2019
Temperature: 3.3°C (38°F)
Dewpoint: -3.9°C (25°F) [RH = 59%]
Pressure (altimeter): 29.91 inches Hg (1013.0 mb)
[Sea-level pressure: 1012.0 mb]
Winds: from the N (350 degrees) at 26 MPH (23 knots; 11.8 m/s)
gusting to 40 MPH (35 knots; 18.0 m/s)
Visibility: 10 or more miles (16+ km)
Ceiling: 2400 feet AGL
Clouds: broken clouds at 2400 feet AGL
broken clouds at 12000 feet AGL
Weather: no significant weather observed at this time

METAR text: KLBB 221841Z 35023G31KT 10SM BKN024 BKN120 03/M04 A2992 RMK AO2 PK WND 35031/1835 T00331039
Conditions at: KLBB (LUBBOCK , TX, US) observed 1841 UTC 22 January 2019
Temperature: 3.3°C (38°F)
Dewpoint: -3.9°C (25°F) [RH = 59%]
Pressure (altimeter): 29.92 inches Hg (1013.3 mb)
Winds: from the N (350 degrees) at 26 MPH (23 knots; 11.8 m/s)
gusting to 36 MPH (31 knots; 15.9 m/s)
Visibility: 10 or more miles (16+ km)
Ceiling: 2400 feet AGL
Clouds: broken clouds at 2400 feet AGL
broken clouds at 12000 feet AGL
Weather: no significant weather observed at this time

METAR text: KLBB 221753Z 36023G30KT 10SM FEW016 BKN100 03/M03 A2989 RMK AO2 PK WND 36032/1702 SLP112 T00281033 10083 20011 53038
Conditions at: KLBB (LUBBOCK , TX, US) observed 1753 UTC 22 January 2019
Temperature: 2.8°C (37°F)
Dewpoint: -3.3°C (26°F) [RH = 64%]
Pressure (altimeter): 29.89 inches Hg (1012.3 mb)
[Sea-level pressure: 1011.2 mb]
Winds: from the N (360 degrees) at 26 MPH (23 knots; 11.8 m/s)
gusting to 34 MPH (30 knots; 15.4 m/s)
Visibility: 10 or more miles (16+ km)
Ceiling: 10000 feet AGL
Clouds: few clouds at 1600 feet AGL
broken clouds at 10000 feet AGL
Weather: no significant weather observed at this time

METAR text: KLBB 221653Z 36020G33KT 10SM BKN100 03/M02 A2986 RMK AO2 PK WND 36033/1640 PRESRR SLP099 T00331017
Conditions at: KLBB (LUBBOCK , TX, US) observed 1653 UTC 22 January 2019
Temperature: 3.3°C (38°F)
Dewpoint: -1.7°C (29°F) [RH = 70%]
Pressure (altimeter): 29.86 inches Hg (1011.3 mb)
[Sea-level pressure: 1009.9 mb]
Winds: from the N (360 degrees) at 23 MPH (20 knots; 10.3 m/s)
gusting to 38 MPH (33 knots; 17.0 m/s)
Visibility: 10 or more miles (16+ km)
Ceiling: 10000 feet AGL
Clouds: broken clouds at 10000 feet AGL
Weather: no significant weather observed at this time

METAR text: KLBB 221553Z 30012KT 10SM BKN120 08/M03 A2978 RMK AO2 SLP064 T00831033
Conditions at: KLBB (LUBBOCK , TX, US) observed 1553 UTC 22 January 2019
Temperature: 8.3°C (47°F)
Dewpoint: -3.3°C (26°F) [RH = 44%]
Pressure (altimeter): 29.78 inches Hg (1008.5 mb)
[Sea-level pressure: 1006.4 mb]
Winds: from the WNW (300 degrees) at 14 MPH (12 knots; 6.2 m/s)
Visibility: 10 or more miles (16+ km)
Ceiling: 12000 feet AGL
Clouds: broken clouds at 12000 feet AGL
Weather: no significant weather observed at this time

METAR text: KLBB 221453Z COR 26006KT 10SM FEW180 SCT250 02/M03 A2977 RMK AO2 SLP067 T00171028 53018
Conditions at: KLBB (LUBBOCK , TX, US) observed 1453 UTC 22 January 2019
Temperature: 1.7°C (35°F)
Dewpoint: -2.8°C (27°F) [RH = 72%]
Pressure (altimeter): 29.77 inches Hg (1008.2 mb)
[Sea-level pressure: 1006.7 mb]
Winds: from the W (260 degrees) at 7 MPH (6 knots; 3.1 m/s)
Visibility: 10 or more miles (16+ km)
Ceiling: at least 12,000 feet AGL
Clouds: few clouds at 18000 feet AGL
scattered clouds at 25000 feet AGL
Weather: no significant weather observed at this time

METAR text: KLBB 221353Z 28006KT 10SM SCT250 01/M03 A2973 RMK AO2 SLP054 T00111028
Conditions at: KLBB (LUBBOCK , TX, US) observed 1353 UTC 22 January 2019
Temperature: 1.1°C (34°F)
Dewpoint: -2.8°C (27°F) [RH = 75%]
Pressure (altimeter): 29.73 inches Hg (1006.9 mb)
[Sea-level pressure: 1005.4 mb]
Winds: from the W (280 degrees) at 7 MPH (6 knots; 3.1 m/s)
Visibility: 10 or more miles (16+ km)
Ceiling: at least 12,000 feet AGL
Clouds: scattered clouds at 25000 feet AGL
Weather: no significant weather observed at this time

METAR text: KLBB 221253Z 27007KT 10SM BKN280 03/M02 A2972 RMK AO2 SLP043 T00331017
Conditions at: KLBB (LUBBOCK , TX, US) observed 1253 UTC 22 January 2019
Temperature: 3.3°C (38°F)
Dewpoint: -1.7°C (29°F) [RH = 70%]
Pressure (altimeter): 29.72 inches Hg (1006.5 mb)
[Sea-level pressure: 1004.3 mb]
Winds: from the W (270 degrees) at 8 MPH (7 knots; 3.6 m/s)
Visibility: 10 or more miles (16+ km)
Ceiling: 28000 feet AGL
Clouds: broken clouds at 28000 feet AGL
Weather: no significant weather observed at this time

METAR text: KLBB 221153Z 26006KT 10SM BKN280 05/00 A2971 RMK AO2 SLP035 T00500000 10106 20050 51014
Conditions at: KLBB (LUBBOCK , TX, US) observed 1153 UTC 22 January 2019
Temperature: 5.0°C (41°F)
Dewpoint: 0.0°C (32°F) [RH = 70%]
Pressure (altimeter): 29.71 inches Hg (1006.2 mb)
[Sea-level pressure: 1003.5 mb]
Winds: from the W (260 degrees) at 7 MPH (6 knots; 3.1 m/s)
Visibility: 10 or more miles (16+ km)
Ceiling: 28000 feet AGL
Clouds: broken clouds at 28000 feet AGL
Weather: no significant weather observed at this time

METAR text: KLBB 221053Z 25008KT 10SM SCT280 07/02 A2970 RMK AO2 WSHFT 0940 SLP029 T00670022
Conditions at: KLBB (LUBBOCK , TX, US) observed 1053 UTC 22 January 2019
Temperature: 6.7°C (44°F)
Dewpoint: 2.2°C (36°F) [RH = 73%]
Pressure (altimeter): 29.70 inches Hg (1005.8 mb)
[Sea-level pressure: 1002.9 mb]
Winds: from the WSW (250 degrees) at 9 MPH (8 knots; 4.1 m/s)
Visibility: 10 or more miles (16+ km)
Ceiling: at least 12,000 feet AGL
Clouds: scattered clouds at 28000 feet AGL
Weather: no significant weather observed at this time

METAR text: KLBB 221000Z 25011G23KT 10SM SCT280 07/02 A2968 RMK AO2 WSHFT 0940 T00720022
Conditions at: KLBB (LUBBOCK , TX, US) observed 1000 UTC 22 January 2019
Temperature: 7.2°C (45°F)
Dewpoint: 2.2°C (36°F) [RH = 70%]
Pressure (altimeter): 29.68 inches Hg (1005.2 mb)
Winds: from the WSW (250 degrees) at 13 MPH (11 knots; 5.7 m/s)
gusting to 26 MPH (23 knots; 11.8 m/s)
Visibility: 10 or more miles (16+ km)
Ceiling: at least 12,000 feet AGL
Clouds: scattered clouds at 28000 feet AGL
Weather: no significant weather observed at this time

METAR text: KLBB 220953Z 28012G23KT 190V310 10SM SCT280 07/02 A2969 RMK AO2 WSHFT 0939 PRESRR SLP022 T00720022
Conditions at: KLBB (LUBBOCK , TX, US) observed 0953 UTC 22 January 2019
Temperature: 7.2°C (45°F)
Dewpoint: 2.2°C (36°F) [RH = 70%]
Pressure (altimeter): 29.69 inches Hg (1005.5 mb)
[Sea-level pressure: 1002.2 mb]
Winds: from the W (280 degrees) at 14 MPH (12 knots; 6.2 m/s)
gusting to 26 MPH (23 knots; 11.8 m/s)
Visibility: 10 or more miles (16+ km)
Ceiling: at least 12,000 feet AGL
Clouds: scattered clouds at 28000 feet AGL
Weather: no significant weather observed at this time

METAR text: KLBB 220853Z 22012KT 10SM BKN260 09/04 A2966 RMK AO2 SLP012 T00940039 53002
Conditions at: KLBB (LUBBOCK , TX, US) observed 0853 UTC 22 January 2019
Temperature: 9.4°C (49°F)
Dewpoint: 3.9°C (39°F) [RH = 68%]
Pressure (altimeter): 29.66 inches Hg (1004.5 mb)
[Sea-level pressure: 1001.2 mb]
Winds: from the SW (220 degrees) at 14 MPH (12 knots; 6.2 m/s)
Visibility: 10 or more miles (16+ km)
Ceiling: 26000 feet AGL
Clouds: broken clouds at 26000 feet AGL
Weather: no significant weather observed at this time

METAR text: KLBB 220753Z 21018G27KT 10SM BKN260 10/03 A2966 RMK AO2 PK WND 19029/0704 SLP011 T01000033
Conditions at: KLBB (LUBBOCK , TX, US) observed 0753 UTC 22 January 2019
Temperature: 10.0°C (50°F)
Dewpoint: 3.3°C (38°F) [RH = 63%]
Pressure (altimeter): 29.66 inches Hg (1004.5 mb)
[Sea-level pressure: 1001.1 mb]
Winds: from the SSW (210 degrees) at 21 MPH (18 knots; 9.3 m/s)
gusting to 31 MPH (27 knots; 13.9 m/s)
Visibility: 10 or more miles (16+ km)
Ceiling: 26000 feet AGL
Clouds: broken clouds at 26000 feet AGL
Weather: no significant weather observed at this time

Forecast for: KLBB (LUBBOCK , TX, US)
Text: KLBB 231720Z 2318/2418 27011KT P6SM SKC
Forecast period: 1800 UTC 23 January 2019 to 1800 UTC 24 January 2019
Forecast type: FROM: standard forecast or significant change
Winds: from the W (270 degrees) at 13 MPH (11 knots; 5.7 m/s)
Visibility: 6 or more miles 10+ km)
Clouds: clear skies
Weather: no significant weather forecast for this period